Time;durP1;ratioP1;P1;durP2;ratioP2;P2;SDS_P1;SDS_P2;PMS_P1;PMS_P2;Temp;Humidity;BMP_temperature;BMP_pressure;BME280_temperature;BME280_humidity;BME280_pressure;Samples;Min_cycle;Max_cycle;Signal;HPM_P1;HPM_P2
2023/12/24 00:02:09;;;;;;;7.10;1.23;;;8.90;99.90;;;;;;5002829;28;20056;-36
2023/12/24 00:04:35;;;;;;;10.93;1.52;;;8.90;99.90;;;;;;5003502;28;20461;-36
2023/12/24 00:07:00;;;;;;;7.55;1.45;;;8.90;99.90;;;;;;4985496;28;20069;-36
2023/12/24 00:09:26;;;;;;;8.45;1.90;;;9.00;99.90;;;;;;5002934;28;20116;-34
2023/12/24 00:11:52;;;;;;;12.55;1.73;;;8.90;99.90;;;;;;5005858;28;20061;-34
2023/12/24 00:14:18;;;;;;;6.85;1.42;;;8.90;99.90;;;;;;5003190;28;20167;-34
2023/12/24 00:16:43;;;;;;;12.07;2.22;;;8.90;99.90;;;;;;5001732;28;20481;-35
2023/12/24 00:19:09;;;;;;;11.23;2.08;;;9.00;99.90;;;;;;5005175;28;20050;-34
2023/12/24 00:21:35;;;;;;;8.82;1.90;;;9.00;99.90;;;;;;5006420;28;20061;-34
2023/12/24 00:24:01;;;;;;;8.63;1.67;;;9.00;99.90;;;;;;5004186;28;20050;-35
2023/12/24 00:26:26;;;;;;;10.32;1.70;;;9.00;99.90;;;;;;5001827;28;20119;-35
2023/12/24 00:28:52;;;;;;;11.20;1.75;;;9.00;99.90;;;;;;5007211;28;20064;-35
2023/12/24 00:31:18;;;;;;;12.07;1.70;;;9.00;99.90;;;;;;5001550;28;20057;-35
2023/12/24 00:33:44;;;;;;;11.20;1.98;;;9.00;99.90;;;;;;5002807;28;20804;-35
2023/12/24 00:36:09;;;;;;;9.52;1.35;;;9.00;99.90;;;;;;5003691;28;20053;-35
2023/12/24 00:38:35;;;;;;;9.27;1.50;;;9.00;99.90;;;;;;4999658;28;20129;-35
2023/12/24 00:41:01;;;;;;;10.02;2.05;;;9.00;99.90;;;;;;5004519;28;20062;-35
2023/12/24 00:43:26;;;;;;;7.05;1.33;;;9.10;99.90;;;;;;5004830;28;20057;-35
2023/12/24 00:45:52;;;;;;;8.70;1.48;;;9.10;99.90;;;;;;5005142;28;20549;-35
2023/12/24 00:48:18;;;;;;;7.35;1.38;;;9.10;99.90;;;;;;5005124;28;20053;-34
2023/12/24 00:50:43;;;;;;;5.43;0.93;;;9.10;99.90;;;;;;5002232;28;20212;-35
2023/12/24 00:53:09;;;;;;;11.63;1.40;;;9.20;99.90;;;;;;5000932;28;20077;-35
2023/12/24 00:55:35;;;;;;;9.55;1.30;;;9.20;99.90;;;;;;5005039;28;20046;-35
2023/12/24 00:58:01;;;;;;;6.97;1.00;;;9.10;99.90;;;;;;5003868;28;20128;-35
2023/12/24 01:00:26;;;;;;;6.25;1.20;;;9.20;99.90;;;;;;5003250;28;20111;-34
2023/12/24 01:02:52;;;;;;;8.93;1.15;;;9.20;99.90;;;;;;4982151;28;20077;-34
2023/12/24 01:05:18;;;;;;;9.55;0.80;;;9.30;99.90;;;;;;5000898;28;20513;-35
2023/12/24 01:07:44;;;;;;;8.27;1.23;;;9.30;99.90;;;;;;5001861;28;20049;-35
2023/12/24 01:10:10;;;;;;;6.50;0.90;;;9.30;99.90;;;;;;5004135;28;20077;-35
2023/12/24 01:12:37;;;;;;;10.05;1.55;;;9.30;99.90;;;;;;5003885;28;20054;-35
2023/12/24 01:15:03;;;;;;;8.32;1.33;;;9.30;99.90;;;;;;5004893;28;20042;-35
2023/12/24 01:17:29;;;;;;;11.35;1.30;;;9.40;99.90;;;;;;4998390;28;20050;-35
2023/12/24 01:19:56;;;;;;;8.75;1.08;;;9.40;99.90;;;;;;5004298;28;20061;-35
2023/12/24 01:22:22;;;;;;;7.25;1.55;;;9.40;99.90;;;;;;4998166;28;20523;-35
2023/12/24 01:24:48;;;;;;;9.50;0.90;;;9.40;99.90;;;;;;5002696;28;20054;-36
2023/12/24 01:27:13;;;;;;;5.28;0.80;;;9.40;99.90;;;;;;5003339;28;20053;-35
2023/12/24 01:29:39;;;;;;;8.50;1.17;;;9.40;99.90;;;;;;4999902;28;20049;-35
2023/12/24 01:32:05;;;;;;;7.15;0.80;;;9.40;99.90;;;;;;5003246;28;20050;-35
2023/12/24 01:34:30;;;;;;;7.53;1.35;;;9.30;99.90;;;;;;4998746;28;20440;-34
2023/12/24 01:36:56;;;;;;;8.85;1.15;;;9.30;99.90;;;;;;4999698;28;20073;-34
2023/12/24 01:39:22;;;;;;;7.47;1.00;;;9.20;99.90;;;;;;5001766;28;20521;-34
2023/12/24 01:41:48;;;;;;;6.80;1.20;;;9.20;99.90;;;;;;5001383;28;20053;-35
2023/12/24 01:44:13;;;;;;;7.63;1.10;;;9.10;99.90;;;;;;5000063;28;20085;-36
2023/12/24 01:46:40;;;;;;;7.50;1.20;;;9.10;99.90;;;;;;5003050;28;20405;-34
2023/12/24 01:49:07;;;;;;;8.85;1.55;;;9.10;99.90;;;;;;5001156;28;20050;-34
2023/12/24 01:51:34;;;;;;;10.48;1.20;;;9.00;99.90;;;;;;5001374;28;20297;-34
2023/12/24 01:54:00;;;;;;;11.13;1.75;;;9.00;99.90;;;;;;5001943;28;20053;-35
2023/12/24 01:56:27;;;;;;;6.03;0.90;;;9.10;99.90;;;;;;4999761;28;20065;-36
2023/12/24 01:58:53;;;;;;;8.25;1.20;;;9.00;99.90;;;;;;5001787;28;20124;-35
2023/12/24 02:01:19;;;;;;;6.88;1.17;;;9.00;99.90;;;;;;4997862;28;20425;-35
2023/12/24 02:03:45;;;;;;;9.05;1.30;;;9.00;99.90;;;;;;5000127;28;20068;-35
2023/12/24 02:06:11;;;;;;;8.93;1.20;;;9.00;99.90;;;;;;5000613;28;20136;-35
2023/12/24 02:08:36;;;;;;;7.60;1.23;;;9.00;99.90;;;;;;5000831;28;20045;-35
2023/12/24 02:11:05;;;;;;;6.55;1.00;;;9.00;99.90;;;;;;5001922;28;20540;-35
2023/12/24 02:13:32;;;;;;;5.57;1.08;;;9.00;99.90;;;;;;5003182;28;20085;-35
2023/12/24 02:16:00;;;;;;;6.55;1.08;;;9.00;99.90;;;;;;5005305;28;20272;-35
2023/12/24 02:18:26;;;;;;;5.95;0.98;;;9.00;99.90;;;;;;5003164;28;20156;-35
2023/12/24 02:20:51;;;;;;;9.48;1.00;;;9.00;99.90;;;;;;5003374;28;20108;-35
2023/12/24 02:23:17;;;;;;;7.35;1.48;;;9.00;99.90;;;;;;5002740;28;20562;-35
2023/12/24 02:25:43;;;;;;;8.48;1.10;;;9.00;99.90;;;;;;5002084;28;20541;-35
2023/12/24 02:28:24;;;;;;;8.27;1.55;;;9.00;99.90;;;;;;4986940;28;20049;-35
2023/12/24 02:30:59;;;;;;;8.02;1.17;;;9.00;99.90;;;;;;5004307;28;20057;-35
2023/12/24 02:33:27;;;;;;;8.80;1.40;;;9.00;99.90;;;;;;5003332;28;20056;-35
2023/12/24 02:35:54;;;;;;;7.90;1.23;;;9.00;99.90;;;;;;5004131;28;20054;-35
2023/12/24 02:38:19;;;;;;;7.45;1.23;;;9.00;99.90;;;;;;5006442;28;20119;-35
2023/12/24 02:40:45;;;;;;;3.90;0.90;;;9.00;99.90;;;;;;5005513;28;20050;-36
2023/12/24 02:43:11;;;;;;;7.63;1.33;;;9.00;99.90;;;;;;5002385;28;20132;-35
2023/12/24 02:45:36;;;;;;;8.15;1.40;;;9.00;99.90;;;;;;5000929;28;20061;-35
2023/12/24 02:48:02;;;;;;;6.45;1.58;;;9.00;99.90;;;;;;5003030;28;20050;-35
2023/12/24 02:50:28;;;;;;;8.68;1.40;;;9.00;99.90;;;;;;5003812;28;20053;-35
2023/12/24 02:52:54;;;;;;;4.63;1.00;;;9.00;99.90;;;;;;4999512;28;20058;-35
2023/12/24 02:55:19;;;;;;;7.13;1.23;;;9.00;99.90;;;;;;4999758;28;20063;-35
2023/12/24 02:57:45;;;;;;;8.32;1.50;;;9.00;99.90;;;;;;5004301;28;20107;-36
2023/12/24 03:00:11;;;;;;;7.05;1.52;;;9.00;99.90;;;;;;5001756;28;20467;-35
2023/12/24 03:02:37;;;;;;;4.55;1.20;;;9.00;99.90;;;;;;5000439;28;20053;-36
2023/12/24 03:05:03;;;;;;;7.03;1.23;;;9.00;99.90;;;;;;5000029;28;20114;-35
2023/12/24 03:07:29;;;;;;;7.78;1.55;;;9.00;99.90;;;;;;5003994;28;20054;-35
2023/12/24 03:09:55;;;;;;;7.88;1.88;;;9.10;99.90;;;;;;5001721;28;20053;-35
2023/12/24 03:12:20;;;;;;;7.25;1.10;;;9.10;99.90;;;;;;5003798;28;20065;-35
2023/12/24 03:14:46;;;;;;;6.68;1.30;;;9.00;99.90;;;;;;4999307;28;21304;-35
2023/12/24 03:17:12;;;;;;;6.38;1.30;;;9.00;99.90;;;;;;5001454;28;20072;-35
2023/12/24 03:19:37;;;;;;;4.00;1.20;;;9.00;99.90;;;;;;4998379;28;20073;-35
2023/12/24 03:22:03;;;;;;;3.78;1.25;;;9.00;99.90;;;;;;4983256;28;20512;-35
2023/12/24 03:24:29;;;;;;;8.85;1.73;;;9.00;99.90;;;;;;4997882;28;20046;-35
2023/12/24 03:26:55;;;;;;;6.68;1.20;;;9.00;99.90;;;;;;4997386;28;20054;-35
2023/12/24 03:29:21;;;;;;;7.25;1.23;;;9.10;99.90;;;;;;4999474;28;20056;-35
2023/12/24 03:31:47;;;;;;;4.82;1.02;;;9.10;99.90;;;;;;5006536;28;20081;-35
2023/12/24 03:34:14;;;;;;;7.10;1.60;;;9.10;99.90;;;;;;4992430;28;20513;-35
2023/12/24 03:36:40;;;;;;;6.45;0.85;;;9.10;99.90;;;;;;5002557;28;20057;-35
2023/12/24 03:39:05;;;;;;;2.63;1.08;;;9.10;99.90;;;;;;5005213;28;20169;-35
2023/12/24 03:41:31;;;;;;;3.42;0.80;;;9.10;99.90;;;;;;5000611;28;20140;-35
2023/12/24 03:43:57;;;;;;;6.35;1.08;;;9.10;99.90;;;;;;4996777;28;20054;-35
2023/12/24 03:46:23;;;;;;;3.50;0.80;;;9.10;99.90;;;;;;5006067;28;20129;-35
2023/12/24 03:48:49;;;;;;;3.05;1.25;;;9.20;99.90;;;;;;5003955;28;20069;-35
2023/12/24 03:51:15;;;;;;;3.97;0.80;;;9.20;99.90;;;;;;4997683;28;20046;-35
2023/12/24 03:53:41;;;;;;;3.78;0.70;;;9.20;99.90;;;;;;5003176;28;20093;-35
2023/12/24 03:56:09;;;;;;;3.85;0.60;;;9.20;99.90;;;;;;4999234;28;20084;-35
2023/12/24 03:58:35;;;;;;;2.75;0.70;;;9.20;99.90;;;;;;5007336;28;20077;-35
2023/12/24 04:01:01;;;;;;;1.10;0.50;;;9.20;99.90;;;;;;5004454;28;20065;-34
2023/12/24 04:03:26;;;;;;;3.30;0.90;;;9.20;99.90;;;;;;5003185;28;20050;-34
2023/12/24 04:05:52;;;;;;;3.47;0.70;;;9.20;99.90;;;;;;4987697;28;20060;-35
2023/12/24 04:08:18;;;;;;;2.53;0.80;;;9.20;99.90;;;;;;5005622;28;20469;-35
2023/12/24 04:10:44;;;;;;;2.17;0.55;;;9.20;99.90;;;;;;5005813;28;20111;-35
2023/12/24 04:13:09;;;;;;;3.47;0.77;;;9.30;99.90;;;;;;5000821;28;20089;-34
2023/12/24 04:15:35;;;;;;;3.47;0.70;;;9.30;99.90;;;;;;5004970;28;21493;-36
2023/12/24 04:18:01;;;;;;;4.53;0.80;;;9.30;99.90;;;;;;5004573;28;20060;-36
2023/12/24 04:20:27;;;;;;;1.85;0.52;;;9.30;99.90;;;;;;5005615;28;20439;-36
2023/12/24 04:22:53;;;;;;;4.78;0.77;;;9.30;99.90;;;;;;5004608;28;20133;-36
2023/12/24 04:25:18;;;;;;;1.60;0.60;;;9.30;99.90;;;;;;5003877;28;20053;-35
2023/12/24 04:27:44;;;;;;;1.42;0.50;;;9.30;99.90;;;;;;4999977;28;20081;-34
2023/12/24 04:30:10;;;;;;;3.50;0.82;;;9.30;99.90;;;;;;5002750;28;20144;-34
2023/12/24 04:32:36;;;;;;;2.78;0.68;;;9.40;99.90;;;;;;5003152;28;20096;-34
2023/12/24 04:35:02;;;;;;;2.70;0.55;;;9.40;99.90;;;;;;5001664;28;20054;-34
2023/12/24 04:37:28;;;;;;;3.40;0.60;;;9.40;99.90;;;;;;4988976;28;20086;-34
2023/12/24 04:39:53;;;;;;;5.20;0.63;;;9.40;99.90;;;;;;5004944;28;20041;-34
2023/12/24 04:42:19;;;;;;;2.42;0.77;;;9.40;99.90;;;;;;5006419;28;20069;-34
2023/12/24 04:44:45;;;;;;;1.75;0.50;;;9.40;99.90;;;;;;5004510;28;20046;-34
2023/12/24 04:47:11;;;;;;;5.78;1.00;;;9.50;99.90;;;;;;5003841;28;20501;-35
2023/12/24 04:49:37;;;;;;;2.75;0.70;;;9.50;99.90;;;;;;5002180;28;20054;-35
2023/12/24 04:52:04;;;;;;;2.53;0.68;;;9.50;99.90;;;;;;5003362;28;20137;-34
2023/12/24 04:54:29;;;;;;;2.35;0.50;;;9.50;99.90;;;;;;5002174;28;20050;-35
2023/12/24 04:56:55;;;;;;;3.85;1.00;;;9.50;99.90;;;;;;5001554;28;20042;-34
2023/12/24 04:59:21;;;;;;;3.50;0.50;;;9.60;99.90;;;;;;5004693;28;20042;-34
2023/12/24 05:01:49;;;;;;;3.75;0.70;;;9.60;99.90;;;;;;5002476;28;20054;-36
2023/12/24 05:04:14;;;;;;;4.97;0.50;;;9.60;99.90;;;;;;5005471;28;20515;-34
2023/12/24 05:06:40;;;;;;;1.88;0.63;;;9.60;99.90;;;;;;4985155;28;20054;-35
2023/12/24 05:09:06;;;;;;;2.33;0.60;;;9.60;99.90;;;;;;5002201;28;20141;-34
2023/12/24 05:11:31;;;;;;;2.08;0.70;;;9.60;99.90;;;;;;4999535;28;20133;-34
2023/12/24 05:13:57;;;;;;;2.55;0.73;;;9.60;99.90;;;;;;5004202;28;20501;-34
2023/12/24 05:16:22;;;;;;;4.13;0.90;;;9.60;99.90;;;;;;4981800;28;20564;-34
2023/12/24 05:18:49;;;;;;;3.22;0.90;;;9.60;99.90;;;;;;5001181;28;20607;-35
2023/12/24 05:21:15;;;;;;;3.97;0.85;;;9.60;99.90;;;;;;5003911;28;20050;-36
2023/12/24 05:23:40;;;;;;;3.63;0.77;;;9.60;99.90;;;;;;5002763;28;20124;-35
2023/12/24 05:26:06;;;;;;;4.05;0.95;;;9.60;99.90;;;;;;5000089;28;20553;-36
2023/12/24 05:28:31;;;;;;;4.20;0.93;;;9.60;99.90;;;;;;4999077;28;20049;-35
2023/12/24 05:30:57;;;;;;;4.13;1.00;;;9.60;99.90;;;;;;4999831;28;20050;-35
2023/12/24 05:33:23;;;;;;;4.88;1.27;;;9.60;99.90;;;;;;5002503;28;20069;-35
2023/12/24 05:35:48;;;;;;;4.00;0.95;;;9.70;99.90;;;;;;5000560;28;20462;-35
2023/12/24 05:38:14;;;;;;;4.50;1.13;;;9.70;99.90;;;;;;5003616;28;20127;-35
2023/12/24 05:40:40;;;;;;;6.15;1.60;;;9.70;99.90;;;;;;5006006;28;20397;-35
2023/12/24 05:43:06;;;;;;;4.88;1.25;;;9.70;99.90;;;;;;4996118;28;20058;-35
2023/12/24 05:45:33;;;;;;;5.50;1.33;;;9.70;99.90;;;;;;5002761;28;20104;-36
2023/12/24 05:47:59;;;;;;;5.90;1.80;;;9.70;99.90;;;;;;4999655;28;20057;-35
2023/12/24 05:50:25;;;;;;;6.07;1.52;;;9.70;99.90;;;;;;5003155;28;20446;-34
2023/12/24 05:52:50;;;;;;;8.75;1.60;;;9.70;99.90;;;;;;5003079;28;20054;-35
2023/12/24 05:55:16;;;;;;;10.60;1.98;;;9.70;99.90;;;;;;5000865;28;20046;-35
2023/12/24 05:57:42;;;;;;;7.47;1.60;;;9.70;99.90;;;;;;5004313;28;20053;-35
2023/12/24 06:00:09;;;;;;;7.47;1.70;;;9.80;99.90;;;;;;5000772;28;20139;-35
2023/12/24 06:02:35;;;;;;;11.57;1.90;;;9.80;99.90;;;;;;5004113;28;20057;-35
2023/12/24 06:05:01;;;;;;;6.88;2.30;;;9.80;99.90;;;;;;5006654;28;20108;-35
2023/12/24 06:07:27;;;;;;;5.55;1.48;;;9.80;99.90;;;;;;5002491;28;20058;-35
2023/12/24 06:09:53;;;;;;;9.77;1.75;;;9.80;99.90;;;;;;5005828;28;20046;-35
2023/12/24 06:12:18;;;;;;;10.70;2.05;;;9.80;99.90;;;;;;5001774;28;20067;-35
2023/12/24 06:14:44;;;;;;;10.80;1.63;;;9.90;99.90;;;;;;4999466;28;20132;-35
2023/12/24 06:17:09;;;;;;;9.55;2.00;;;9.80;99.90;;;;;;4999153;28;20133;-35
2023/12/24 06:19:35;;;;;;;8.15;1.50;;;9.80;99.90;;;;;;5003773;28;20072;-35
2023/12/24 06:22:01;;;;;;;8.35;1.83;;;9.90;99.90;;;;;;4999218;28;20509;-35
2023/12/24 06:24:27;;;;;;;10.32;1.63;;;9.90;99.90;;;;;;5003336;28;20120;-35
2023/12/24 06:26:52;;;;;;;8.85;2.08;;;9.90;99.90;;;;;;4997586;28;20045;-35
2023/12/24 06:29:18;;;;;;;11.77;1.92;;;10.00;99.90;;;;;;4999284;28;20050;-35
2023/12/24 06:31:44;;;;;;;12.85;1.98;;;10.00;99.90;;;;;;5001387;28;20064;-36
2023/12/24 06:34:11;;;;;;;8.80;1.75;;;10.00;99.90;;;;;;5002732;28;20057;-35
2023/12/24 06:36:37;;;;;;;21.08;2.70;;;10.00;99.90;;;;;;4985765;28;20444;-35
2023/12/24 06:39:02;;;;;;;7.60;1.88;;;10.00;99.90;;;;;;5007095;28;20046;-36
2023/12/24 06:41:28;;;;;;;17.70;2.55;;;10.10;99.90;;;;;;5005646;28;20417;-35
2023/12/24 06:43:54;;;;;;;9.73;1.77;;;10.10;99.90;;;;;;4997644;28;20084;-35
2023/12/24 06:46:20;;;;;;;11.60;2.08;;;10.10;99.90;;;;;;5001932;28;20514;-35
2023/12/24 06:48:46;;;;;;;9.77;1.88;;;10.10;99.90;;;;;;5004564;28;20053;-34
2023/12/24 06:51:12;;;;;;;12.68;1.73;;;10.10;99.90;;;;;;4999262;28;20050;-35
2023/12/24 06:53:37;;;;;;;9.10;1.58;;;10.10;99.90;;;;;;5004597;28;20046;-35
2023/12/24 06:56:04;;;;;;;10.73;1.85;;;10.10;99.90;;;;;;4983806;28;20618;-35
2023/12/24 06:58:29;;;;;;;11.10;2.08;;;10.10;99.90;;;;;;5004206;28;20080;-35
2023/12/24 07:00:55;;;;;;;7.10;1.60;;;10.20;99.90;;;;;;4997482;28;20521;-35
2023/12/24 07:03:21;;;;;;;12.10;2.50;;;10.20;99.90;;;;;;5003389;28;20596;-35
2023/12/24 07:05:46;;;;;;;15.48;2.72;;;10.10;99.90;;;;;;4999022;28;20053;-35
2023/12/24 07:08:12;;;;;;;13.38;2.38;;;10.10;99.90;;;;;;4998210;28;20065;-35
2023/12/24 07:10:38;;;;;;;11.15;2.33;;;10.20;99.90;;;;;;5000997;28;20052;-35
2023/12/24 07:13:04;;;;;;;15.93;2.20;;;10.20;99.90;;;;;;4979723;28;20053;-35
2023/12/24 07:15:36;;;;;;;12.48;2.60;;;10.20;99.90;;;;;;4999278;28;20089;-35
2023/12/24 07:18:02;;;;;;;15.50;2.92;;;10.10;99.90;;;;;;4998327;28;20129;-35
2023/12/24 07:20:28;;;;;;;15.18;2.75;;;10.10;99.90;;;;;;5000350;28;20175;-35
2023/12/24 07:22:54;;;;;;;12.38;2.35;;;10.10;99.90;;;;;;4984164;28;20101;-34
2023/12/24 07:25:19;;;;;;;10.55;2.28;;;10.20;99.90;;;;;;4995904;28;20054;-35
2023/12/24 07:27:45;;;;;;;18.60;2.35;;;10.20;99.90;;;;;;4997581;28;20905;-34
2023/12/24 07:30:11;;;;;;;11.45;2.05;;;10.20;99.90;;;;;;4999560;28;20634;-35
2023/12/24 07:32:43;;;;;;;5.90;1.70;;;10.30;99.90;;;;;;5002551;28;20049;-34
2023/12/24 07:35:08;;;;;;;12.75;2.60;;;10.30;99.90;;;;;;5002923;28;20155;-36
2023/12/24 07:37:34;;;;;;;11.38;2.08;;;10.40;99.90;;;;;;5001738;28;20100;-35
2023/12/24 07:40:00;;;;;;;14.23;2.63;;;10.40;99.90;;;;;;5002481;28;20539;-35
2023/12/24 07:42:25;;;;;;;10.73;1.60;;;10.40;99.90;;;;;;4998967;28;20050;-35
2023/12/24 07:44:51;;;;;;;10.88;2.20;;;10.40;99.90;;;;;;5001369;28;20107;-35
2023/12/24 07:47:17;;;;;;;12.90;1.60;;;10.50;99.90;;;;;;5003101;28;20124;-35
2023/12/24 07:49:42;;;;;;;13.85;2.30;;;10.40;99.90;;;;;;4997609;28;20073;-35
2023/12/24 07:52:08;;;;;;;17.17;2.72;;;10.50;99.90;;;;;;4999328;28;20132;-35
2023/12/24 07:54:34;;;;;;;13.35;2.17;;;10.50;99.90;;;;;;4987840;28;20141;-35
2023/12/24 07:57:00;;;;;;;13.38;2.13;;;10.50;99.90;;;;;;4997451;28;20125;-35
2023/12/24 07:59:25;;;;;;;13.07;2.65;;;10.50;99.90;;;;;;4995789;28;20128;-35
2023/12/24 08:01:51;;;;;;;14.23;2.22;;;10.60;99.90;;;;;;5001042;28;20084;-36
2023/12/24 08:04:16;;;;;;;13.10;1.85;;;10.60;99.90;;;;;;4996790;28;20069;-35
2023/12/24 08:06:42;;;;;;;12.43;2.25;;;10.60;99.90;;;;;;5001506;28;20056;-35
2023/12/24 08:09:10;;;;;;;11.55;2.03;;;10.60;99.90;;;;;;4999810;28;20049;-36
2023/12/24 08:11:36;;;;;;;14.05;1.90;;;10.60;99.90;;;;;;5000400;28;20493;-35
2023/12/24 08:14:02;;;;;;;10.00;1.70;;;10.60;99.90;;;;;;4995060;28;20069;-35
2023/12/24 08:16:31;;;;;;;14.90;2.53;;;10.60;99.90;;;;;;4998509;28;20069;-35
2023/12/24 08:18:58;;;;;;;13.85;2.10;;;10.70;99.90;;;;;;5001125;28;20556;-35
2023/12/24 08:21:24;;;;;;;9.65;2.15;;;10.70;99.90;;;;;;5007329;28;20058;-35
2023/12/24 08:23:49;;;;;;;14.75;2.03;;;10.70;99.90;;;;;;5005273;28;20058;-35
2023/12/24 08:26:15;;;;;;;11.73;2.05;;;10.80;99.90;;;;;;5003473;28;20058;-35
2023/12/24 08:28:41;;;;;;;10.52;2.10;;;10.80;99.90;;;;;;5006964;28;20049;-35
2023/12/24 08:31:07;;;;;;;10.05;1.60;;;10.80;99.90;;;;;;5003633;28;20050;-35
2023/12/24 08:33:32;;;;;;;10.50;1.50;;;10.80;99.90;;;;;;5003609;28;20077;-40
2023/12/24 08:35:58;;;;;;;7.50;1.73;;;10.90;99.90;;;;;;5003461;28;20506;-35
2023/12/24 08:38:24;;;;;;;10.52;1.38;;;10.90;99.90;;;;;;5003897;28;20126;-35
2023/12/24 08:40:49;;;;;;;10.40;1.38;;;10.90;99.90;;;;;;5001397;28;20060;-35
2023/12/24 08:43:15;;;;;;;9.13;2.42;;;10.90;99.90;;;;;;5002450;28;20050;-35
2023/12/24 08:45:41;;;;;;;9.43;1.77;;;11.00;99.90;;;;;;5002618;28;20589;-36
2023/12/24 08:48:08;;;;;;;11.63;1.70;;;11.00;99.90;;;;;;4998265;28;20061;-35
2023/12/24 08:50:34;;;;;;;11.85;1.40;;;10.90;99.90;;;;;;5003034;28;20050;-36
2023/12/24 08:53:00;;;;;;;12.90;2.00;;;11.00;99.90;;;;;;5001206;28;20053;-35
2023/12/24 08:55:25;;;;;;;11.07;1.70;;;11.00;99.90;;;;;;5003798;28;20053;-36
2023/12/24 08:57:51;;;;;;;7.35;1.88;;;11.00;99.90;;;;;;5003484;28;20072;-35
2023/12/24 09:00:17;;;;;;;5.38;1.60;;;11.00;99.90;;;;;;5000827;28;20057;-35
2023/12/24 09:02:43;;;;;;;8.65;3.00;;;11.10;99.90;;;;;;5003001;28;20076;-35
2023/12/24 09:05:09;;;;;;;12.80;1.65;;;11.10;99.90;;;;;;5003524;28;20050;-36
2023/12/24 09:07:35;;;;;;;9.80;1.45;;;11.10;99.90;;;;;;5004573;28;20049;-36
2023/12/24 09:10:02;;;;;;;11.48;1.90;;;11.10;99.90;;;;;;4985459;28;20243;-35
2023/12/24 09:12:28;;;;;;;12.32;1.50;;;11.10;99.90;;;;;;4997883;28;20053;-35
2023/12/24 09:14:53;;;;;;;12.85;1.95;;;11.10;99.90;;;;;;4983213;28;20086;-35
2023/12/24 09:17:19;;;;;;;11.05;1.58;;;11.10;99.90;;;;;;5003070;28;20217;-35
2023/12/24 09:19:45;;;;;;;9.40;1.50;;;11.10;99.90;;;;;;4995805;28;20565;-35
2023/12/24 09:22:10;;;;;;;10.85;1.80;;;11.20;99.90;;;;;;5004102;28;20137;-35
2023/12/24 09:24:36;;;;;;;9.48;1.73;;;11.20;99.90;;;;;;5001366;28;20591;-35
2023/12/24 09:27:02;;;;;;;5.45;1.10;;;11.30;99.90;;;;;;4999448;28;20070;-35
2023/12/24 09:29:28;;;;;;;10.35;2.13;;;11.30;99.90;;;;;;4999754;28;20080;-35
2023/12/24 09:31:53;;;;;;;13.65;1.63;;;11.30;99.90;;;;;;5005223;28;20045;-35
2023/12/24 09:34:19;;;;;;;7.13;1.98;;;11.40;99.90;;;;;;4997484;28;20131;-35
2023/12/24 09:36:45;;;;;;;7.10;1.10;;;11.40;99.90;;;;;;5002475;28;20513;-35
2023/12/24 09:39:11;;;;;;;13.13;1.98;;;11.40;99.90;;;;;;5001215;28;20057;-35
2023/12/24 09:41:39;;;;;;;10.38;1.75;;;11.40;99.90;;;;;;5007189;28;20050;-36
2023/12/24 09:44:07;;;;;;;7.28;1.40;;;11.40;99.90;;;;;;5000334;28;20053;-35
2023/12/24 09:46:33;;;;;;;8.10;1.25;;;11.50;99.90;;;;;;5003631;28;20081;-35
2023/12/24 09:48:59;;;;;;;8.25;1.40;;;11.40;99.90;;;;;;5002153;28;20501;-35
2023/12/24 09:51:29;;;;;;;9.15;1.23;;;11.50;99.90;;;;;;5001376;28;20045;-35
2023/12/24 09:53:55;;;;;;;10.65;1.52;;;11.50;99.90;;;;;;5003881;28;20045;-35
2023/12/24 09:56:21;;;;;;;9.00;1.48;;;11.50;99.90;;;;;;5002711;28;20072;-34
2023/12/24 09:58:46;;;;;;;11.93;1.83;;;11.50;99.90;;;;;;5003045;28;20053;-34
2023/12/24 10:01:13;;;;;;;13.48;2.30;;;11.60;99.90;;;;;;5005202;28;20046;-35
2023/12/24 10:03:38;;;;;;;9.98;1.60;;;11.60;99.90;;;;;;4983541;28;20070;-35
2023/12/24 10:06:05;;;;;;;7.68;1.27;;;11.60;99.90;;;;;;4999313;28;20463;-35
2023/12/24 10:08:31;;;;;;;9.00;1.70;;;11.60;99.90;;;;;;5000984;28;20436;-35
2023/12/24 10:11:10;;;;;;;9.27;1.23;;;11.50;99.90;;;;;;4997761;28;20508;-35
2023/12/24 10:13:36;;;;;;;7.32;1.40;;;11.50;99.90;;;;;;4994992;28;20060;-35
2023/12/24 10:16:03;;;;;;;10.32;2.20;;;11.50;99.90;;;;;;5001879;28;20045;-36
2023/12/24 10:18:29;;;;;;;10.18;1.25;;;11.50;99.90;;;;;;5000543;28;20104;-35
2023/12/24 10:21:02;;;;;;;10.43;1.60;;;11.50;99.90;;;;;;5000409;28;20398;-36
2023/12/24 10:23:28;;;;;;;10.63;1.27;;;11.60;99.90;;;;;;4998760;28;20054;-36
2023/12/24 10:26:02;;;;;;;7.05;1.13;;;11.60;99.90;;;;;;5002935;28;20413;-35
2023/12/24 10:28:28;;;;;;;13.00;2.20;;;11.60;99.90;;;;;;5002669;28;20073;-35
2023/12/24 10:31:08;;;;;;;8.80;1.40;;;11.70;99.90;;;;;;4996370;28;20085;-35
2023/12/24 10:33:38;;;;;;;10.68;1.00;;;11.80;99.90;;;;;;4995521;28;20062;-35
2023/12/24 10:36:04;;;;;;;6.70;0.95;;;11.80;99.90;;;;;;4997163;28;20068;-35
2023/12/24 10:38:30;;;;;;;7.57;1.45;;;11.80;99.90;;;;;;4998736;28;20086;-35
2023/12/24 10:40:56;;;;;;;5.47;1.63;;;11.80;99.90;;;;;;4998628;28;20401;-35
2023/12/24 10:43:22;;;;;;;5.35;1.27;;;11.80;99.90;;;;;;4997655;28;20057;-35
2023/12/24 10:45:48;;;;;;;7.57;1.02;;;11.80;99.90;;;;;;4995378;28;20457;-35
2023/12/24 10:48:14;;;;;;;7.25;1.23;;;11.80;99.90;;;;;;4997204;28;20064;-34
2023/12/24 10:50:40;;;;;;;9.50;1.20;;;11.80;99.90;;;;;;4995997;28;20161;-35
2023/12/24 10:53:05;;;;;;;7.55;1.15;;;11.90;99.90;;;;;;4996629;28;20524;-35
2023/12/24 10:55:34;;;;;;;7.82;1.17;;;11.90;99.90;;;;;;4998347;28;20074;-35
2023/12/24 10:58:25;;;;;;;10.82;1.52;;;11.90;99.90;;;;;;5007044;28;20536;-35
2023/12/24 11:00:50;;;;;;;9.90;1.35;;;12.00;99.90;;;;;;4991713;28;20054;-35
2023/12/24 11:03:42;;;;;;;8.40;1.73;;;12.00;99.90;;;;;;5003388;28;20409;-35
2023/12/24 11:06:09;;;;;;;7.93;1.42;;;12.00;99.90;;;;;;5002060;28;20486;-35
2023/12/24 11:08:35;;;;;;;11.32;1.67;;;12.00;99.90;;;;;;4994818;28;20104;-34
2023/12/24 11:11:06;;;;;;;9.57;1.45;;;12.00;99.90;;;;;;4998556;28;20049;-35
2023/12/24 11:13:32;;;;;;;8.70;1.33;;;11.90;99.90;;;;;;4998201;28;20500;-34
2023/12/24 11:15:59;;;;;;;6.95;1.00;;;11.90;99.90;;;;;;4997746;28;20308;-35
2023/12/24 11:18:48;;;;;;;8.43;1.40;;;11.90;99.90;;;;;;4981949;28;20050;-35
2023/12/24 11:21:19;;;;;;;9.50;1.55;;;11.90;99.90;;;;;;4996488;28;20058;-34
2023/12/24 11:24:12;;;;;;;4.78;1.05;;;11.90;99.90;;;;;;4996679;28;20050;-34
2023/12/24 11:26:48;;;;;;;7.20;0.90;;;11.90;99.90;;;;;;4998398;28;20115;-35
2023/12/24 11:29:48;;;;;;;6.32;1.13;;;11.80;99.90;;;;;;4997379;28;20565;-35
2023/12/24 11:32:25;;;;;;;6.82;1.10;;;11.90;99.90;;;;;;4997376;28;20058;-36
2023/12/24 11:34:52;;;;;;;9.98;1.33;;;11.90;99.90;;;;;;5000186;28;20057;-36
2023/12/24 11:37:35;;;;;;;6.57;0.90;;;11.90;99.90;;;;;;5001967;28;20108;-35
2023/12/24 11:40:14;;;;;;;4.00;0.80;;;11.90;99.90;;;;;;4997345;28;20406;-36
2023/12/24 11:42:48;;;;;;;7.07;1.20;;;11.90;99.90;;;;;;4996745;28;20049;-36
2023/12/24 11:45:29;;;;;;;7.88;1.13;;;11.90;99.90;;;;;;4992047;28;20595;-36
2023/12/24 11:47:55;;;;;;;11.15;0.95;;;11.90;99.90;;;;;;4996707;28;20729;-36
2023/12/24 11:50:21;;;;;;;6.53;1.20;;;11.90;99.90;;;;;;4998098;28;20501;-34
2023/12/24 11:52:48;;;;;;;8.02;1.70;;;11.90;99.90;;;;;;5000490;28;20077;-35
2023/12/24 11:55:15;;;;;;;6.72;1.23;;;11.90;99.90;;;;;;5003159;28;20062;-36
2023/12/24 11:57:41;;;;;;;11.68;1.30;;;11.90;99.90;;;;;;5002779;28;20062;-35
2023/12/24 12:00:28;;;;;;;7.35;1.30;;;11.90;99.90;;;;;;5006074;28;20489;-35
2023/12/24 12:02:58;;;;;;;12.55;1.45;;;12.00;99.90;;;;;;5004561;28;20061;-35
2023/12/24 12:05:24;;;;;;;7.25;1.20;;;12.00;99.90;;;;;;5005703;28;20058;-35
2023/12/24 12:07:51;;;;;;;8.20;1.25;;;12.00;99.90;;;;;;5005804;28;20054;-36
2023/12/24 12:10:17;;;;;;;4.93;1.13;;;12.00;99.90;;;;;;5005147;28;20061;-36
2023/12/24 12:12:43;;;;;;;8.27;1.38;;;12.00;99.90;;;;;;5002005;28;20505;-36
2023/12/24 12:15:10;;;;;;;9.05;0.93;;;12.00;99.90;;;;;;5003326;28;20065;-36
2023/12/24 12:17:36;;;;;;;9.35;1.50;;;12.00;99.90;;;;;;4986624;28;20050;-36
2023/12/24 12:20:03;;;;;;;5.95;1.15;;;12.00;99.90;;;;;;5004082;28;20084;-35
2023/12/24 12:22:28;;;;;;;7.07;1.17;;;12.00;99.90;;;;;;5002289;28;20054;-36
2023/12/24 12:24:54;;;;;;;7.00;1.25;;;12.00;99.90;;;;;;5007238;28;20111;-36
2023/12/24 12:27:20;;;;;;;9.70;1.88;;;12.00;99.90;;;;;;5005467;28;20393;-36
2023/12/24 12:29:46;;;;;;;10.60;2.20;;;12.00;99.90;;;;;;5000887;28;20070;-35
2023/12/24 12:32:11;;;;;;;8.35;1.33;;;12.00;99.90;;;;;;5005975;28;20548;-36
2023/12/24 12:34:38;;;;;;;8.32;1.63;;;12.00;99.90;;;;;;4999821;28;20049;-36
2023/12/24 12:37:04;;;;;;;5.95;1.13;;;12.00;99.90;;;;;;5001012;28;20050;-35
2023/12/24 12:39:30;;;;;;;7.80;1.58;;;11.90;99.90;;;;;;5001846;28;20560;-35
2023/12/24 12:41:57;;;;;;;7.15;1.23;;;11.90;99.90;;;;;;4988567;28;20081;-36
2023/12/24 12:44:23;;;;;;;11.65;1.42;;;11.80;99.90;;;;;;5000123;28;20861;-35
2023/12/24 12:46:49;;;;;;;4.50;1.23;;;11.90;99.90;;;;;;4996291;28;20046;-36